Time;durP1;ratioP1;P1;durP2;ratioP2;P2;SDS_P1;SDS_P2;PMS_P1;PMS_P2;Temp;Humidity;BMP_temperature;BMP_pressure;BME280_temperature;BME280_humidity;BME280_pressure;Samples;Min_cycle;Max_cycle;Signal;HPM_P1;HPM_P2
2022/03/30 06:02:27;;;;;;;203.35;74.28;;;;;;;;;;4981012;23;20039;-81
2022/03/30 06:04:56;;;;;;;196.98;74.55;;;;;;;;;;4966460;28;20129;-80
2022/03/30 06:07:22;;;;;;;194.13;75.40;;;;;;;;;;4957524;28;20069;-82
2022/03/30 06:09:49;;;;;;;202.38;73.20;;;;;;;;;;4953400;28;20058;-82
2022/03/30 06:12:16;;;;;;;205.13;73.68;;;;;;;;;;4967193;28;20073;-80
2022/03/30 06:14:43;;;;;;;203.88;73.93;;;;;;;;;;4953380;28;20467;-81
2022/03/30 06:17:10;;;;;;;206.38;75.53;;;;;;;;;;4956085;28;20043;-80
2022/03/30 06:19:38;;;;;;;209.73;76.20;;;;;;;;;;4951605;28;20055;-81
2022/03/30 06:22:08;;;;;;;218.85;77.72;;;;;;;;;;4953338;28;20467;-80
2022/03/30 06:24:37;;;;;;;195.18;73.13;;;;;;;;;;4950946;28;20578;-81
2022/03/30 06:27:05;;;;;;;210.52;75.70;;;;;;;;;;4951885;28;20050;-80
2022/03/30 06:29:33;;;;;;;207.48;76.93;;;;;;;;;;4952453;28;20051;-81
2022/03/30 06:32:00;;;;;;;221.45;79.32;;;;;;;;;;4955652;28;20075;-82
2022/03/30 06:34:27;;;;;;;208.38;79.07;;;;;;;;;;4954572;28;20046;-81
2022/03/30 06:36:53;;;;;;;212.68;79.82;;;;;;;;;;4955192;28;20051;-81
2022/03/30 06:39:20;;;;;;;213.02;78.38;;;;;;;;;;4953950;28;20094;-81
2022/03/30 06:41:48;;;;;;;223.00;79.28;;;;;;;;;;4964683;28;20638;-80
2022/03/30 06:44:16;;;;;;;229.43;81.07;;;;;;;;;;4957476;28;20070;-81
2022/03/30 06:46:43;;;;;;;227.27;81.55;;;;;;;;;;4958656;28;20054;-82
2022/03/30 06:49:10;;;;;;;222.35;82.03;;;;;;;;;;4958485;28;20582;-82
2022/03/30 06:51:37;;;;;;;215.38;76.82;;;;;;;;;;4953074;28;20527;-82
2022/03/30 06:54:05;;;;;;;207.45;77.72;;;;;;;;;;4950926;28;20047;-80
2022/03/30 06:56:33;;;;;;;207.38;76.60;;;;;;;;;;4954416;28;20102;-81
2022/03/30 06:58:59;;;;;;;209.27;77.70;;;;;;;;;;4962392;28;20058;-80
2022/03/30 07:01:32;;;;;;;198.60;75.07;;;;;;;;;;4954304;28;20583;-80
2022/03/30 07:03:59;;;;;;;204.65;77.47;;;;;;;;;;4954853;28;20114;-81
2022/03/30 07:06:26;;;;;;;193.90;73.18;;;;;;;;;;4960228;28;20051;-81
2022/03/30 07:11:37;;;;;;;189.35;72.25;;;;;;;;;;4952827;28;20535;-79
2022/03/30 07:14:04;;;;;;;178.25;66.45;;;;;;;;;;4952774;28;20055;-80
2022/03/30 07:16:30;;;;;;;163.13;64.18;;;;;;;;;;4958337;28;20043;-81
2022/03/30 07:18:57;;;;;;;153.88;60.70;;;;;;;;;;4958638;28;20434;-81
2022/03/30 07:21:24;;;;;;;146.80;59.55;;;;;;;;;;4962300;28;20059;-81
2022/03/30 07:23:50;;;;;;;141.93;57.10;;;;;;;;;;4961370;28;20460;-80
2022/03/30 07:26:17;;;;;;;138.77;57.05;;;;;;;;;;4951714;28;20051;-81
2022/03/30 07:28:49;;;;;;;135.95;54.85;;;;;;;;;;4954245;28;20047;-82
2022/03/30 07:31:15;;;;;;;126.65;53.92;;;;;;;;;;4956525;28;20047;-82
2022/03/30 07:33:42;;;;;;;127.22;53.28;;;;;;;;;;4953142;28;20113;-81
2022/03/30 07:36:09;;;;;;;124.55;52.33;;;;;;;;;;4949698;28;20047;-81
2022/03/30 07:38:36;;;;;;;103.22;46.22;;;;;;;;;;4961492;28;20066;-82
2022/03/30 07:41:03;;;;;;;111.93;45.55;;;;;;;;;;4961473;28;20054;-80
2022/03/30 07:43:30;;;;;;;98.57;43.40;;;;;;;;;;4963483;28;20078;-80
2022/03/30 07:45:57;;;;;;;101.50;44.67;;;;;;;;;;4957487;28;20054;-81
2022/03/30 07:48:24;;;;;;;95.50;43.67;;;;;;;;;;4951739;28;20100;-81
2022/03/30 07:50:51;;;;;;;95.55;43.03;;;;;;;;;;4949865;28;20074;-81
2022/03/30 07:53:18;;;;;;;86.53;42.33;;;;;;;;;;4950550;28;20129;-81
2022/03/30 07:55:46;;;;;;;89.35;42.88;;;;;;;;;;4950513;28;20098;-82
2022/03/30 07:58:13;;;;;;;;;;;;;;;;;;4958899;28;20039;-80
2022/03/30 08:00:40;;;;;;;87.07;42.72;;;;;;;;;;4963474;28;19984;-80
2022/03/30 08:03:07;;;;;;;92.28;43.35;;;;;;;;;;4953934;28;20051;-81
2022/03/30 08:05:34;;;;;;;86.35;43.55;;;;;;;;;;4951079;28;20078;-80
2022/03/30 08:08:01;;;;;;;92.38;43.10;;;;;;;;;;4954195;28;20042;-80
2022/03/30 08:10:29;;;;;;;86.18;42.53;;;;;;;;;;4955636;28;20050;-80
2022/03/30 08:12:56;;;;;;;89.22;43.00;;;;;;;;;;4959586;28;20082;-85
2022/03/30 08:15:23;;;;;;;85.38;42.40;;;;;;;;;;4947609;28;20112;-81
2022/03/30 08:17:51;;;;;;;80.70;42.33;;;;;;;;;;4955182;28;20102;-81
2022/03/30 08:23:10;;;;;;;80.97;41.13;;;;;;;;;;4960152;28;20121;-80
2022/03/30 08:25:38;;;;;;;84.15;43.03;;;;;;;;;;4956712;28;20050;-80
2022/03/30 08:28:05;;;;;;;80.20;42.10;;;;;;;;;;4959599;28;20047;-81
2022/03/30 08:30:32;;;;;;;81.00;41.20;;;;;;;;;;4954041;28;20495;-84
2022/03/30 08:33:00;;;;;;;80.82;41.63;;;;;;;;;;4944205;28;20043;-83
2022/03/30 08:35:27;;;;;;;78.18;42.20;;;;;;;;;;4951078;28;20067;-83
2022/03/30 08:37:54;;;;;;;83.78;42.67;;;;;;;;;;4950938;28;20106;-83
2022/03/30 08:40:22;;;;;;;77.25;41.35;;;;;;;;;;4955911;28;20054;-84
2022/03/30 08:42:50;;;;;;;81.82;43.55;;;;;;;;;;4962132;28;20496;-83
2022/03/30 08:45:19;;;;;;;82.38;43.90;;;;;;;;;;4955757;28;20050;-84
2022/03/30 08:47:46;;;;;;;80.72;42.42;;;;;;;;;;4966321;28;20204;-84
2022/03/30 08:50:13;;;;;;;77.63;40.22;;;;;;;;;;4952925;28;20111;-83
2022/03/30 08:52:41;;;;;;;70.75;39.80;;;;;;;;;;4959967;28;20050;-83
2022/03/30 08:55:08;;;;;;;71.55;39.33;;;;;;;;;;4952683;28;20106;-83
2022/03/30 08:57:35;;;;;;;73.68;38.85;;;;;;;;;;4962567;28;20051;-84
2022/03/30 09:00:09;;;;;;;70.93;39.17;;;;;;;;;;4954677;28;20126;-86
2022/03/30 09:02:42;;;;;;;70.28;38.38;;;;;;;;;;4954758;28;20047;-86
2022/03/30 09:05:19;;;;;;;77.10;41.55;;;;;;;;;;4959775;28;20094;-87
2022/03/30 09:08:06;;;;;;;68.63;37.28;;;;;;;;;;4958680;28;20429;-85
2022/03/30 09:10:35;;;;;;;76.07;38.33;;;;;;;;;;4944857;28;20063;-85
2022/03/30 09:13:03;;;;;;;75.88;38.97;;;;;;;;;;4950551;28;20047;-86
2022/03/30 09:15:32;;;;;;;67.18;36.85;;;;;;;;;;4949500;28;20121;-86
2022/03/30 09:18:03;;;;;;;69.90;37.63;;;;;;;;;;4945136;28;20055;-86
2022/03/30 09:20:40;;;;;;;67.57;37.42;;;;;;;;;;4944952;28;20051;-86
2022/03/30 09:23:11;;;;;;;66.40;36.97;;;;;;;;;;4953916;28;20064;-85
2022/03/30 09:25:53;;;;;;;63.50;35.90;;;;;;;;;;4951065;28;20047;-86
2022/03/30 09:28:21;;;;;;;60.65;33.85;;;;;;;;;;4953553;28;20055;-86
2022/03/30 09:30:49;;;;;;;65.10;35.20;;;;;;;;;;4953425;28;20087;-87
2022/03/30 09:33:18;;;;;;;66.00;36.33;;;;;;;;;;4955944;28;20053;-87
2022/03/30 09:35:47;;;;;;;61.10;33.40;;;;;;;;;;4954633;28;20135;-87
2022/03/30 09:38:22;;;;;;;55.67;30.70;;;;;;;;;;4952241;28;20069;-84
2022/03/30 09:41:03;;;;;;;61.53;31.98;;;;;;;;;;4953350;28;20051;-83
2022/03/30 09:43:34;;;;;;;63.17;33.53;;;;;;;;;;4940821;28;20047;-83
2022/03/30 09:46:12;;;;;;;61.40;33.28;;;;;;;;;;4938548;28;20127;-84
2022/03/30 09:48:53;;;;;;;66.30;34.75;;;;;;;;;;4937334;28;20055;-83
2022/03/30 09:51:31;;;;;;;57.85;32.75;;;;;;;;;;4936385;28;20059;-84
2022/03/30 09:54:07;;;;;;;56.72;32.15;;;;;;;;;;4936195;28;20051;-83
2022/03/30 09:56:40;;;;;;;55.78;33.25;;;;;;;;;;4942076;28;20051;-90
2022/03/30 09:59:10;;;;;;;62.55;33.40;;;;;;;;;;4947807;28;20138;-87
2022/03/30 10:01:38;;;;;;;61.97;32.05;;;;;;;;;;4939663;28;20062;-87
2022/03/30 10:04:08;;;;;;;53.80;30.95;;;;;;;;;;4940352;28;20055;-85
2022/03/30 10:06:40;;;;;;;54.47;30.92;;;;;;;;;;4944061;28;20685;-86
2022/03/30 10:09:11;;;;;;;55.58;29.95;;;;;;;;;;4935901;28;20035;-85
2022/03/30 10:11:38;;;;;;;49.78;29.50;;;;;;;;;;4939268;28;20448;-85
2022/03/30 10:14:05;;;;;;;57.05;31.25;;;;;;;;;;4936895;28;20059;-86
2022/03/30 10:16:39;;;;;;;56.10;31.50;;;;;;;;;;4939680;28;20059;-85
2022/03/30 10:19:11;;;;;;;55.20;30.25;;;;;;;;;;4929144;28;20067;-84
2022/03/30 10:21:55;;;;;;;56.40;31.08;;;;;;;;;;4936322;28;20122;-86
2022/03/30 10:24:50;;;;;;;58.72;31.88;;;;;;;;;;4937630;28;20740;-83
2022/03/30 10:27:44;;;;;;;61.10;33.03;;;;;;;;;;4937743;28;20043;-85
2022/03/30 10:30:12;;;;;;;58.47;33.20;;;;;;;;;;4938016;28;20103;-82
2022/03/30 10:32:40;;;;;;;58.22;30.40;;;;;;;;;;4938680;28;20098;-84
2022/03/30 10:35:13;;;;;;;59.08;32.28;;;;;;;;;;4935211;28;20075;-84
2022/03/30 10:37:55;;;;;;;61.95;31.65;;;;;;;;;;4937409;28;20103;-84
2022/03/30 10:40:27;;;;;;;67.40;34.08;;;;;;;;;;4939895;28;20054;-84
2022/03/30 10:42:54;;;;;;;68.25;34.45;;;;;;;;;;4941063;28;20515;-84
2022/03/30 10:45:41;;;;;;;66.38;34.42;;;;;;;;;;4940694;28;20047;-84
2022/03/30 10:48:17;;;;;;;70.00;35.40;;;;;;;;;;4948158;28;20043;-84
2022/03/30 10:50:56;;;;;;;77.57;38.25;;;;;;;;;;4948420;28;20058;-85
2022/03/30 10:53:31;;;;;;;80.72;39.40;;;;;;;;;;4945813;28;20062;-85
2022/03/30 10:56:12;;;;;;;68.82;36.53;;;;;;;;;;4942118;28;20043;-85
2022/03/30 10:59:00;;;;;;;61.60;32.67;;;;;;;;;;4946908;28;20439;-85
2022/03/30 11:01:29;;;;;;;64.13;35.13;;;;;;;;;;4949956;28;20062;-85
2022/03/30 11:04:04;;;;;;;69.47;36.53;;;;;;;;;;4947641;28;20070;-84
2022/03/30 11:06:34;;;;;;;79.88;39.55;;;;;;;;;;4942961;28;20061;-84
2022/03/30 11:09:02;;;;;;;79.03;39.40;;;;;;;;;;4946084;28;20050;-85
2022/03/30 11:11:40;;;;;;;78.43;40.35;;;;;;;;;;4946764;28;20047;-84
2022/03/30 11:14:33;;;;;;;78.35;39.92;;;;;;;;;;4948122;28;20078;-84
2022/03/30 11:17:04;;;;;;;83.72;39.20;;;;;;;;;;4940606;28;20083;-85
2022/03/30 11:19:46;;;;;;;80.55;39.40;;;;;;;;;;4947254;28;20074;-85
2022/03/30 11:22:15;;;;;;;75.90;37.63;;;;;;;;;;4943585;28;20050;-86
2022/03/30 11:24:44;;;;;;;70.60;38.08;;;;;;;;;;4946357;28;20071;-87
2022/03/30 11:27:11;;;;;;;70.65;36.58;;;;;;;;;;4946401;28;20043;-87
2022/03/30 11:29:52;;;;;;;76.68;39.05;;;;;;;;;;4948377;28;20142;-86
2022/03/30 11:32:22;;;;;;;77.25;38.92;;;;;;;;;;4944710;28;20054;-86
2022/03/30 11:34:50;;;;;;;76.38;38.80;;;;;;;;;;4945555;28;20051;-85
2022/03/30 11:37:18;;;;;;;67.47;36.47;;;;;;;;;;4946534;28;20467;-86
2022/03/30 11:39:49;;;;;;;68.22;37.35;;;;;;;;;;4946778;28;20616;-86
2022/03/30 11:42:20;;;;;;;64.10;36.33;;;;;;;;;;4944765;28;20078;-86
2022/03/30 11:47:47;;;;;;;66.72;37.05;;;;;;;;;;4947328;28;20039;-86
2022/03/30 11:50:20;;;;;;;70.88;37.00;;;;;;;;;;4947397;28;20047;-85
2022/03/30 11:53:02;;;;;;;70.35;36.67;;;;;;;;;;4947803;28;20515;-86
2022/03/30 11:55:31;;;;;;;71.47;36.88;;;;;;;;;;4945943;28;20138;-86
2022/03/30 11:58:00;;;;;;;62.45;35.42;;;;;;;;;;4951320;28;20708;-85
2022/03/30 12:00:28;;;;;;;64.45;35.72;;;;;;;;;;4931613;28;20070;-83
2022/03/30 12:03:00;;;;;;;61.55;33.67;;;;;;;;;;4941986;28;20067;-85
2022/03/30 12:05:26;;;;;;;61.08;33.05;;;;;;;;;;4942676;28;20043;-85
2022/03/30 12:07:56;;;;;;;55.83;31.48;;;;;;;;;;4944687;28;20178;-85
2022/03/30 12:10:31;;;;;;;64.22;32.42;;;;;;;;;;4943350;28;20051;-84
2022/03/30 12:12:59;;;;;;;61.55;31.95;;;;;;;;;;4944450;28;20050;-85
2022/03/30 12:15:35;;;;;;;58.67;32.10;;;;;;;;;;4937456;28;20056;-84
2022/03/30 12:18:25;;;;;;;56.40;30.83;;;;;;;;;;4970447;28;21723;-85
2022/03/30 12:20:52;;;;;;;51.15;29.13;;;;;;;;;;4982395;28;20141;-85
2022/03/30 12:23:29;;;;;;;53.72;30.02;;;;;;;;;;4971320;28;20126;-85
2022/03/30 12:26:14;;;;;;;54.22;30.25;;;;;;;;;;4968268;28;20050;-85
2022/03/30 12:29:01;;;;;;;55.00;29.65;;;;;;;;;;4978472;28;20046;-86
2022/03/30 12:31:35;;;;;;;58.13;30.95;;;;;;;;;;4967248;28;20045;-84
2022/03/30 12:34:14;;;;;;;50.83;30.88;;;;;;;;;;4982702;28;20061;-85
2022/03/30 12:36:53;;;;;;;59.70;30.63;;;;;;;;;;4956997;28;20057;-85
2022/03/30 12:39:26;;;;;;;49.90;28.98;;;;;;;;;;4971731;28;20172;-85
2022/03/30 12:42:06;;;;;;;51.70;28.38;;;;;;;;;;4981437;28;20055;-84
2022/03/30 12:44:44;;;;;;;46.67;27.98;;;;;;;;;;4977748;28;20582;-85
2022/03/30 12:47:27;;;;;;;56.80;28.50;;;;;;;;;;4982742;28;20057;-85
2022/03/30 12:49:59;;;;;;;54.95;29.05;;;;;;;;;;4987969;28;20101;-88
2022/03/30 12:52:58;;;;;;;48.45;28.50;;;;;;;;;;4983369;28;20120;-85
2022/03/30 12:55:30;;;;;;;50.17;27.58;;;;;;;;;;4945889;28;20104;-85
2022/03/30 12:57:59;;;;;;;43.40;25.55;;;;;;;;;;4980897;28;20478;-88
2022/03/30 13:00:34;;;;;;;47.67;26.88;;;;;;;;;;4981841;28;21487;-85
2022/03/30 13:03:35;;;;;;;43.85;24.58;;;;;;;;;;4966412;28;20050;-85
2022/03/30 13:06:19;;;;;;;42.95;24.17;;;;;;;;;;4962342;28;20043;-84
2022/03/30 13:09:07;;;;;;;41.38;24.23;;;;;;;;;;4961976;28;20043;-85
2022/03/30 13:11:57;;;;;;;40.67;22.67;;;;;;;;;;4968595;28;20731;-84
2022/03/30 13:14:27;;;;;;;38.70;23.30;;;;;;;;;;4975063;28;20506;-84
2022/03/30 13:16:56;;;;;;;44.28;25.23;;;;;;;;;;4966379;28;20054;-85
2022/03/30 13:19:34;;;;;;;38.20;23.05;;;;;;;;;;4968214;28;20094;-85
2022/03/30 13:22:14;;;;;;;37.25;22.13;;;;;;;;;;4958364;28;20101;-87
2022/03/30 13:24:52;;;;;;;32.30;19.30;;;;;;;;;;4954960;28;20067;-85
2022/03/30 13:27:44;;;;;;;28.80;18.42;;;;;;;;;;4963676;28;20058;-85
2022/03/30 13:30:11;;;;;;;32.55;19.65;;;;;;;;;;4966684;28;20047;-84
2022/03/30 13:32:38;;;;;;;36.75;21.25;;;;;;;;;;4958008;28;20050;-85
2022/03/30 13:35:05;;;;;;;35.63;21.45;;;;;;;;;;4958580;28;20098;-85
2022/03/30 13:37:32;;;;;;;39.63;23.00;;;;;;;;;;4967006;28;20050;-85
2022/03/30 13:40:08;;;;;;;36.75;23.60;;;;;;;;;;4964005;28;20439;-86
2022/03/30 13:42:34;;;;;;;40.60;24.05;;;;;;;;;;4969986;28;20179;-87
2022/03/30 13:45:11;;;;;;;37.17;22.42;;;;;;;;;;4965841;28;20043;-83
2022/03/30 13:47:38;;;;;;;39.85;22.88;;;;;;;;;;4962625;28;20820;-83
2022/03/30 13:50:05;;;;;;;36.65;22.52;;;;;;;;;;4971104;28;20046;-85
2022/03/30 13:52:44;;;;;;;36.63;24.02;;;;;;;;;;4958723;28;20059;-86
2022/03/30 13:55:11;;;;;;;36.67;22.63;;;;;;;;;;4954140;28;20043;-82
2022/03/30 13:57:38;;;;;;;40.75;24.17;;;;;;;;;;4963044;28;20058;-83
2022/03/30 14:00:08;;;;;;;36.90;23.25;;;;;;;;;;4951743;28;20931;-84
2022/03/30 14:02:39;;;;;;;36.85;23.80;;;;;;;;;;4953443;28;20046;-86
2022/03/30 14:05:11;;;;;;;40.05;23.98;;;;;;;;;;4966767;28;20062;-83
2022/03/30 14:07:47;;;;;;;37.55;22.50;;;;;;;;;;4959331;28;20054;-81
2022/03/30 14:10:13;;;;;;;42.05;23.23;;;;;;;;;;4965189;28;20812;-83
2022/03/30 14:12:40;;;;;;;38.38;23.33;;;;;;;;;;4966915;28;20051;-82
2022/03/30 14:15:07;;;;;;;40.95;24.13;;;;;;;;;;4966399;28;20043;-84
2022/03/30 14:17:37;;;;;;;39.67;23.95;;;;;;;;;;4963408;28;20101;-84
2022/03/30 14:20:05;;;;;;;37.05;23.45;;;;;;;;;;4968742;28;20480;-85
2022/03/30 14:22:32;;;;;;;44.22;26.45;;;;;;;;;;4967128;28;20070;-83
2022/03/30 14:24:59;;;;;;;48.55;25.33;;;;;;;;;;4967677;28;20458;-85
2022/03/30 14:27:28;;;;;;;42.92;24.08;;;;;;;;;;4964726;28;20400;-83
2022/03/30 14:29:55;;;;;;;37.25;22.38;;;;;;;;;;4967992;28;20157;-85
2022/03/30 14:32:23;;;;;;;39.83;23.15;;;;;;;;;;4966709;28;20515;-85
2022/03/30 14:34:55;;;;;;;42.22;23.98;;;;;;;;;;4966627;28;20051;-84
2022/03/30 14:37:26;;;;;;;40.92;23.48;;;;;;;;;;4955199;28;20066;-85
2022/03/30 14:39:56;;;;;;;38.85;23.20;;;;;;;;;;4965694;28;20051;-85
2022/03/30 14:42:28;;;;;;;37.45;22.60;;;;;;;;;;4966703;28;20526;-85
2022/03/30 14:44:58;;;;;;;39.65;23.38;;;;;;;;;;4968110;28;20051;-85
2022/03/30 14:47:32;;;;;;;39.38;23.75;;;;;;;;;;4969123;28;20515;-84
2022/03/30 14:49:58;;;;;;;36.13;23.48;;;;;;;;;;4969715;28;20754;-83
2022/03/30 14:52:25;;;;;;;40.67;23.60;;;;;;;;;;4966027;28;20091;-84
2022/03/30 14:55:07;;;;;;;39.33;23.05;;;;;;;;;;4976154;28;20055;-83
2022/03/30 14:57:41;;;;;;;39.13;23.13;;;;;;;;;;4957360;28;20047;-84
2022/03/30 15:00:11;;;;;;;37.30;22.50;;;;;;;;;;4968375;28;20046;-84
2022/03/30 15:02:44;;;;;;;35.30;23.15;;;;;;;;;;4961339;28;20047;-84
2022/03/30 15:05:11;;;;;;;36.35;22.92;;;;;;;;;;4965105;28;20050;-84
2022/03/30 15:07:38;;;;;;;36.45;21.95;;;;;;;;;;4965267;28;20059;-83
2022/03/30 15:10:05;;;;;;;35.10;21.83;;;;;;;;;;4967783;28;20047;-83
2022/03/30 15:12:38;;;;;;;37.42;21.85;;;;;;;;;;4971009;28;20047;-85
2022/03/30 15:15:29;;;;;;;33.65;21.85;;;;;;;;;;4967713;28;20050;-87
2022/03/30 15:17:59;;;;;;;37.95;22.75;;;;;;;;;;4971400;28;20058;-85
2022/03/30 15:20:37;;;;;;;36.47;21.95;;;;;;;;;;4971699;28;20887;-85
2022/03/30 15:23:28;;;;;;;31.95;21.20;;;;;;;;;;4970171;28;20081;-84
2022/03/30 15:26:08;;;;;;;32.35;20.80;;;;;;;;;;4965702;28;20050;-85
2022/03/30 15:28:42;;;;;;;34.83;21.52;;;;;;;;;;4982921;28;20055;-87
2022/03/30 15:31:15;;;;;;;33.65;21.90;;;;;;;;;;4964431;28;20651;-88
2022/03/30 15:33:42;;;;;;;34.72;21.25;;;;;;;;;;4940416;28;20035;-87
2022/03/30 15:36:17;;;;;;;37.33;21.88;;;;;;;;;;4964787;28;20043;-86
2022/03/30 15:38:56;;;;;;;34.58;21.92;;;;;;;;;;4964129;28;20043;-85
2022/03/30 15:41:34;;;;;;;35.15;22.05;;;;;;;;;;4969224;28;20046;-86
2022/03/30 15:44:06;;;;;;;35.15;22.75;;;;;;;;;;4974566;28;20124;-84
2022/03/30 15:47:00;;;;;;;43.75;26.15;;;;;;;;;;4970345;28;20058;-86
2022/03/30 15:49:32;;;;;;;40.75;26.08;;;;;;;;;;4969823;28;20046;-86
2022/03/30 15:52:12;;;;;;;41.28;26.90;;;;;;;;;;4967852;28;20512;-85
2022/03/30 15:54:42;;;;;;;42.35;28.17;;;;;;;;;;4974818;28;20051;-87
2022/03/30 15:57:09;;;;;;;44.78;28.40;;;;;;;;;;4973756;28;20539;-87
2022/03/30 15:59:46;;;;;;;42.80;27.05;;;;;;;;;;4955497;28;20051;-86
2022/03/30 16:02:14;;;;;;;44.97;28.25;;;;;;;;;;4976277;28;20388;-84
2022/03/30 16:04:49;;;;;;;43.85;27.63;;;;;;;;;;4986408;28;20060;-85
2022/03/30 16:07:24;;;;;;;44.58;28.00;;;;;;;;;;4986212;28;20057;-84
2022/03/30 16:09:51;;;;;;;42.15;26.85;;;;;;;;;;4988254;28;20054;-86
2022/03/30 16:12:25;;;;;;;38.85;26.45;;;;;;;;;;4985485;28;20045;-86
2022/03/30 16:14:59;;;;;;;40.22;26.27;;;;;;;;;;4987840;28;20054;-84
2022/03/30 16:17:27;;;;;;;44.45;27.33;;;;;;;;;;4986597;28;20043;-83
2022/03/30 16:20:17;;;;;;;39.95;27.20;;;;;;;;;;4988470;28;20656;-84
2022/03/30 16:22:47;;;;;;;38.75;25.42;;;;;;;;;;4953420;28;20114;-85
2022/03/30 16:25:21;;;;;;;40.03;25.65;;;;;;;;;;4980542;28;20070;-84
2022/03/30 16:28:01;;;;;;;35.33;24.65;;;;;;;;;;4965637;28;20066;-86
2022/03/30 16:30:27;;;;;;;38.30;24.05;;;;;;;;;;4986761;28;20045;-84
2022/03/30 16:33:02;;;;;;;38.20;24.23;;;;;;;;;;4983344;28;20039;-83
2022/03/30 16:35:45;;;;;;;37.90;24.90;;;;;;;;;;4983275;28;20053;-84
2022/03/30 16:38:18;;;;;;;33.83;23.85;;;;;;;;;;4979573;28;20224;-86
2022/03/30 16:40:45;;;;;;;39.88;24.80;;;;;;;;;;4980034;28;20222;-84
2022/03/30 16:43:15;;;;;;;36.72;24.52;;;;;;;;;;4982029;28;20050;-83
2022/03/30 16:45:43;;;;;;;36.80;24.60;;;;;;;;;;4985509;28;20043;-84
2022/03/30 16:48:10;;;;;;;37.38;24.23;;;;;;;;;;4981739;28;20038;-85
2022/03/30 16:50:37;;;;;;;36.78;25.05;;;;;;;;;;4969333;28;20046;-84
2022/03/30 16:53:04;;;;;;;34.75;24.60;;;;;;;;;;4982739;28;20050;-81
2022/03/30 16:55:32;;;;;;;37.00;23.67;;;;;;;;;;4982695;28;20137;-84
2022/03/30 16:57:59;;;;;;;37.67;24.45;;;;;;;;;;4961118;28;20046;-85
2022/03/30 17:00:29;;;;;;;35.85;24.38;;;;;;;;;;4989071;28;20511;-87
2022/03/30 17:03:12;;;;;;;42.13;25.10;;;;;;;;;;4983778;28;20058;-86
2022/03/30 17:05:57;;;;;;;35.20;23.70;;;;;;;;;;4977719;28;20054;-85
2022/03/30 17:11:22;;;;;;;36.78;24.15;;;;;;;;;;4975116;28;20054;-84
2022/03/30 17:13:49;;;;;;;35.45;24.20;;;;;;;;;;4979919;28;20046;-84
2022/03/30 17:16:19;;;;;;;41.22;24.90;;;;;;;;;;4984889;28;20050;-82
2022/03/30 17:18:46;;;;;;;36.35;24.65;;;;;;;;;;4986310;28;20046;-83
2022/03/30 17:21:13;;;;;;;37.75;26.17;;;;;;;;;;4989501;28;20054;-84
2022/03/30 17:23:42;;;;;;;40.00;24.92;;;;;;;;;;4989344;28;20050;-83
2022/03/30 17:26:12;;;;;;;37.90;25.58;;;;;;;;;;4989643;28;20070;-82
2022/03/30 17:28:38;;;;;;;36.72;24.95;;;;;;;;;;4983123;28;20053;-83
2022/03/30 17:31:05;;;;;;;33.30;24.25;;;;;;;;;;4987133;28;20550;-83
2022/03/30 17:33:35;;;;;;;36.58;23.30;;;;;;;;;;4989070;28;20053;-83
2022/03/30 17:36:01;;;;;;;35.20;24.73;;;;;;;;;;4994811;28;20066;-85
2022/03/30 17:38:52;;;;;;;38.95;25.23;;;;;;;;;;4976073;28;20053;-83
2022/03/30 17:41:27;;;;;;;37.58;25.52;;;;;;;;;;4990874;28;20061;-84
2022/03/30 17:44:07;;;;;;;43.75;28.55;;;;;;;;;;4991173;28;20062;-84
2022/03/30 17:46:36;;;;;;;45.90;30.17;;;;;;;;;;4967251;28;20470;-83
2022/03/30 17:51:50;;;;;;;47.42;29.73;;;;;;;;;;4974509;28;20054;-84
2022/03/30 17:54:18;;;;;;;51.05;32.17;;;;;;;;;;4983493;28;20116;-80
2022/03/30 17:56:45;;;;;;;50.95;32.78;;;;;;;;;;4979195;28;20077;-81
2022/03/30 17:59:16;;;;;;;51.70;33.20;;;;;;;;;;4977807;28;20078;-81
2022/03/30 18:01:42;;;;;;;53.10;32.22;;;;;;;;;;4978150;28;20470;-82
2022/03/30 18:04:09;;;;;;;57.40;35.47;;;;;;;;;;4978195;28;20047;-82
2022/03/30 18:06:37;;;;;;;66.18;34.85;;;;;;;;;;4974858;28;20853;-80
2022/03/30 18:09:04;;;;;;;54.53;33.67;;;;;;;;;;4980833;28;20553;-80
2022/03/30 18:11:32;;;;;;;55.75;34.15;;;;;;;;;;4980295;28;20128;-82
2022/03/30 18:14:16;;;;;;;54.35;33.67;;;;;;;;;;4977207;28;20102;-80
2022/03/30 18:16:45;;;;;;;56.95;34.35;;;;;;;;;;4984584;28;20609;-80
2022/03/30 18:19:15;;;;;;;57.58;34.72;;;;;;;;;;4985959;28;20128;-79
2022/03/30 18:21:43;;;;;;;58.13;35.45;;;;;;;;;;4987580;28;20104;-78
2022/03/30 18:24:11;;;;;;;64.32;36.70;;;;;;;;;;4987017;28;20101;-81
2022/03/30 18:26:38;;;;;;;60.80;36.63;;;;;;;;;;4964241;28;20432;-79
2022/03/30 18:29:05;;;;;;;64.07;36.83;;;;;;;;;;4989161;28;20043;-80
2022/03/30 18:31:39;;;;;;;63.10;37.75;;;;;;;;;;4969879;28;20434;-80
2022/03/30 18:34:06;;;;;;;;;;;;;;;;;;4987485;28;20086;-80
2022/03/30 18:36:35;;;;;;;65.57;38.33;;;;;;;;;;4986761;28;20464;-81
2022/03/30 18:39:06;;;;;;;63.08;37.50;;;;;;;;;;4986629;28;20050;-79
2022/03/30 18:41:34;;;;;;;70.20;38.70;;;;;;;;;;4982337;28;20054;-79
2022/03/30 18:44:01;;;;;;;65.22;37.70;;;;;;;;;;4981487;28;20124;-80
2022/03/30 18:46:28;;;;;;;62.47;37.75;;;;;;;;;;4979612;28;20101;-81
2022/03/30 18:48:56;;;;;;;64.13;37.13;;;;;;;;;;4977026;28;20109;-79
2022/03/30 18:51:23;;;;;;;66.35;38.35;;;;;;;;;;4972275;28;20070;-81
2022/03/30 18:53:50;;;;;;;66.68;38.50;;;;;;;;;;4981747;28;20042;-80
2022/03/30 18:56:16;;;;;;;70.55;38.33;;;;;;;;;;4987020;28;20046;-81
2022/03/30 18:58:43;;;;;;;72.43;39.78;;;;;;;;;;4988663;28;20046;-80
2022/03/30 19:01:10;;;;;;;65.90;39.80;;;;;;;;;;4986914;28;20053;-81
2022/03/30 19:03:38;;;;;;;70.13;39.20;;;;;;;;;;4988217;28;22482;-81
2022/03/30 19:06:07;;;;;;;71.13;40.75;;;;;;;;;;4984538;28;20038;-81
2022/03/30 19:08:34;;;;;;;;;;;;;;;;;;4985331;28;20057;-80
2022/03/30 19:11:00;;;;;;;72.90;40.55;;;;;;;;;;4976615;28;20303;-81
2022/03/30 19:13:27;;;;;;;72.47;40.35;;;;;;;;;;4985836;28;20046;-81
2022/03/30 19:15:54;;;;;;;75.38;41.88;;;;;;;;;;4987823;28;20034;-80
2022/03/30 19:18:20;;;;;;;70.40;40.28;;;;;;;;;;4985350;28;20558;-81
2022/03/30 19:20:49;;;;;;;77.10;40.97;;;;;;;;;;4979101;28;20069;-79
2022/03/30 19:23:16;;;;;;;;;;;;;;;;;;4984034;28;20112;-81
2022/03/30 19:25:50;;;;;;;73.40;40.60;;;;;;;;;;4986437;28;20014;-79
2022/03/30 19:28:18;;;;;;;78.85;41.35;;;;;;;;;;4985928;28;20109;-79
2022/03/30 19:30:46;;;;;;;75.53;41.75;;;;;;;;;;4986343;28;20038;-79
2022/03/30 19:33:14;;;;;;;77.75;43.47;;;;;;;;;;4973139;28;20195;-80
2022/03/30 19:35:42;;;;;;;77.13;42.75;;;;;;;;;;4985758;28;20038;-81
2022/03/30 19:38:10;;;;;;;80.75;44.47;;;;;;;;;;4983638;28;20085;-82
2022/03/30 19:40:38;;;;;;;84.85;43.72;;;;;;;;;;4975181;28;20050;-81
2022/03/30 19:43:08;;;;;;;82.50;44.88;;;;;;;;;;4977423;28;20519;-82
2022/03/30 19:45:37;;;;;;;83.20;44.17;;;;;;;;;;4982776;28;20042;-81
2022/03/30 19:48:05;;;;;;;88.88;45.15;;;;;;;;;;4984935;28;20050;-81
2022/03/30 19:50:31;;;;;;;89.65;45.83;;;;;;;;;;4985011;28;20124;-83
2022/03/30 19:53:00;;;;;;;85.60;45.90;;;;;;;;;;4969187;28;20051;-81
2022/03/30 19:55:26;;;;;;;95.60;47.22;;;;;;;;;;4985391;28;20050;-81
2022/03/30 19:58:13;;;;;;;87.07;45.83;;;;;;;;;;4985554;28;20064;-81
2022/03/30 20:00:42;;;;;;;84.13;44.28;;;;;;;;;;4985397;28;20100;-79
2022/03/30 20:03:09;;;;;;;90.18;46.42;;;;;;;;;;4985050;28;20444;-80
2022/03/30 20:05:37;;;;;;;94.05;48.08;;;;;;;;;;4985529;28;20414;-80
2022/03/30 20:08:04;;;;;;;98.32;48.17;;;;;;;;;;4985108;28;20061;-81
2022/03/30 20:10:30;;;;;;;86.45;44.65;;;;;;;;;;4985282;28;20582;-80
2022/03/30 20:12:57;;;;;;;93.25;47.92;;;;;;;;;;4985346;28;20078;-81
2022/03/30 20:15:24;;;;;;;92.25;46.78;;;;;;;;;;4985312;28;20794;-81
2022/03/30 20:17:51;;;;;;;87.55;46.72;;;;;;;;;;4985660;28;20050;-79
2022/03/30 20:20:19;;;;;;;93.70;46.25;;;;;;;;;;4985256;28;20046;-81
2022/03/30 20:22:46;;;;;;;95.03;46.60;;;;;;;;;;4984974;28;20104;-80
2022/03/30 20:25:13;;;;;;;87.10;46.75;;;;;;;;;;4984774;28;20066;-80
2022/03/30 20:27:40;;;;;;;95.53;49.75;;;;;;;;;;4983010;28;20042;-79
2022/03/30 20:30:08;;;;;;;88.05;46.42;;;;;;;;;;4968064;28;20054;-80
2022/03/30 20:32:35;;;;;;;90.23;47.93;;;;;;;;;;4984760;28;27189;-81
2022/03/30 20:35:02;;;;;;;92.88;47.45;;;;;;;;;;4992165;28;20281;-79
2022/03/30 20:37:29;;;;;;;93.63;48.80;;;;;;;;;;4991055;28;20466;-80
2022/03/30 20:39:57;;;;;;;92.20;47.72;;;;;;;;;;4973988;28;20108;-78
2022/03/30 20:42:24;;;;;;;92.75;47.78;;;;;;;;;;4992867;28;20109;-80
2022/03/30 20:44:52;;;;;;;101.68;51.20;;;;;;;;;;4992113;28;20116;-79
2022/03/30 20:47:19;;;;;;;99.47;49.90;;;;;;;;;;4990776;28;20054;-80
2022/03/30 20:49:46;;;;;;;95.07;50.05;;;;;;;;;;4993082;28;20046;-78
2022/03/30 20:52:15;;;;;;;98.32;50.42;;;;;;;;;;4991762;28;20109;-79
2022/03/30 20:54:49;;;;;;;98.18;48.33;;;;;;;;;;4992207;28;20050;-80